< < Back
Terminal Aerodrome Forecast


Current Version              Previous Versions:   1  2  3  4  5  6  7  8  9  

Terminal Aerodrome Forecast

784
FTAK31 PAJN 280520
TAFAGS
TAF
PAGS 280520Z 2806/2906 31006KT P6SM SCT100
     FM281900 24007KT P6SM SCT080
      AMD LTD TO CLD VIS AND WIND=

Latest METAR

933
SAUS70 KWBC 280600 RRN
MTRAGS
METAR KAGS 280553Z 00000KT 10SM CLR 17/16 A3010 RMK AO2 SLP189 T01670161
10267 20161 50003


USA.gov is the U.S. government's official web portal to all federal, state and local government web resources and services.